Portada
METAR-TAF:

METAR-TAF

Aeropuertos :

Huesca, España

Aeropuerto de Huesca-Pirineos

latitud: 42-04-32N, longitud: 0-18-58W, altitud: 539 m

Observación

El informe se hizo hace 24 minutos, a las 11:00 UTC
Viento 2 kt con dirección variable
Temperatura 14°C
Humedad 47%
Presión 1019 hPa
Visibilidad 10 km o más
sin nubes por debajo de 1500 m y sin presencia de cumulonimbus.

METAR: LEHC 231100Z VRB02KT CAVOK 14/03 Q1019

Hora: 12:24 (11:24 UTC)

Pronóstico

El informe se hizo hace 3 horas y 24 minutos, a las 08:00 UTC
Pronóstico válido del 23 a las 09 UTC al 24 a las 09 UTC
Viento 3 kt con dirección variable
Visibilidad 10 km o más
sin nubes por debajo de 1500 m y sin presencia de cumulonimbus.
Temporalmente
del 23 a las 12 UTC al 23 a las 15 UTC
Viento 9 kt del este-sureste

TAF: LEHC 230800Z 2309/2409 VRB03KT CAVOK TX17/2313Z TN06/2406Z TEMPO 2312/2315 12009KT

Observaciones y pronósticos meteorológicos de más de 4000 aeropuertos (mensajes METAR y TAF).

Los puntos amarillos y rojos representan las estaciones disponibles.

Ponga el ratón en el punto deseado para ver el nombre de la estación.

Haga clic para ver las observaciones y los pronósticos meteorológicos.

Para cambiar el mapa : haga clic en los botones verdes con una cruz de color negro para hacer un zoom, en el botón verde con un guión para alejar o en las flechas verdes para mapas adyacentes.


METAR-TAF: